Terminal Aerodrome Forecast
Issued by NWS Charleston, WV

Home | Current Version | Previous Version | Text Only | Print | Product List | Glossary On
Versions: 1 2 3 4 5 6 7 8 9 10 11 12 13 14 15 16 17 18 19 20 21 22
000
FTUS41 KRLX 042300
TAFCRW
TAF
KCRW 042337Z 0500/0524 35009KT 2SM +RA BR OVC008
     FM050200 36008KT 2SM -PL BR SCT002 OVC008
     FM050500 36008KT 1/2SM SN SCT001 OVC004
     FM051300 35009KT 3SM -SN BR OVC008
     FM051600 35009KT 5SM -SN BR OVC012
     FM052000 33008KT 5SM BR BKN020=

USA.gov is the U.S. government's official web portal to all federal, state and local government web resources and services.